LFMT/MPL METAR and TAF weather

Enter ICAO airport designator
Station Type Date Time Source
LFMT METAR 2021/04/18 03:30 UTC NOAA

LFMT 180330Z AUTO 29008KT CAVOK 09/M01 Q1017 NOSIG


Station Type Date Time Source
LFMT Decoded METAR 2021/04/18 03:30 UTC NOAA

Montpellier, France (LFMT) 43-35N 003-58E 6M
Apr 17, 2021 - 11:30 PM EDT / 2021.04.18 0330 UTC
Wind: from the WNW (290 degrees) at 9 MPH (8 KT):0
Visibility: greater than 7 mile(s):0
Temperature: 48 F (9 C)
Dew Point: 30 F (-1 C)
Relative Humidity: 49%
Pressure (altimeter): 30.03 in. Hg (1017 hPa)
ob: LFMT 180330Z AUTO 29008KT CAVOK 09/M01 Q1017 NOSIG
cycle: 3

Station Type Date Time Source
LFMT TAF 2021/04/18 03:26 UTC NOAA

TAF LFMT 180200Z 1803/1903 31010KT CAVOK
BECMG 1807/1810 02012KT
TEMPO 1812/1818 21012KT
BECMG 1822/1901 32008KT

Example: see airport list